Time;durP1;ratioP1;P1;durP2;ratioP2;P2;SDS_P1;SDS_P2;PMS_P1;PMS_P2;Temp;Humidity;BMP_temperature;BMP_pressure;BME280_temperature;BME280_humidity;BME280_pressure;Samples;Min_cycle;Max_cycle;Signal;HPM_P1;HPM_P2
2023/05/05 00:01:53;;;;;;;7.30;4.67;;;;;;;13.65;100.00;100060.19;5097560;28;20303;-74
2023/05/05 00:04:21;;;;;;;6.60;4.97;;;;;;;13.66;100.00;100057.50;5085007;28;20185;-75
2023/05/05 00:06:47;;;;;;;8.70;5.07;;;;;;;13.63;100.00;100062.91;5074190;28;20185;-75
2023/05/05 00:09:12;;;;;;;6.10;5.13;;;;;;;13.72;100.00;100061.44;5093765;28;20541;-74
2023/05/05 00:11:37;;;;;;;7.90;5.33;;;;;;;13.78;100.00;100061.03;5093135;28;20235;-75
2023/05/05 00:14:02;;;;;;;6.10;4.90;;;;;;;13.77;100.00;100053.34;5066885;28;20192;-75
2023/05/05 00:16:28;;;;;;;5.10;4.47;;;;;;;13.76;100.00;100062.06;5077274;28;20263;-75
2023/05/05 00:18:53;;;;;;;4.93;4.40;;;;;;;13.75;100.00;100050.88;5086642;28;20231;-75
2023/05/05 00:21:18;;;;;;;8.70;4.60;;;;;;;13.78;100.00;100060.19;5092582;28;20227;-75
2023/05/05 00:23:44;;;;;;;6.83;4.87;;;;;;;13.76;100.00;100059.47;5097974;28;20646;-74
2023/05/05 00:26:09;;;;;;;9.53;4.87;;;;;;;13.79;100.00;100062.69;5083356;28;20667;-73
2023/05/05 00:28:34;;;;;;;7.23;4.80;;;;;;;13.70;100.00;100055.53;5086758;28;20187;-73
2023/05/05 00:31:00;;;;;;;5.43;4.93;;;;;;;13.75;100.00;100055.22;5081978;28;20638;-73
2023/05/05 00:33:25;;;;;;;5.53;4.67;;;;;;;13.74;100.00;100048.41;5081460;28;20280;-74
2023/05/05 00:35:51;;;;;;;6.50;4.07;;;;;;;13.69;100.00;100046.97;5091139;28;20184;-70
2023/05/05 00:38:16;;;;;;;11.07;5.27;;;;;;;13.67;100.00;100041.06;5090061;28;20206;-74
2023/05/05 00:40:41;;;;;;;5.33;4.57;;;;;;;13.70;100.00;100045.19;5086883;28;20684;-74
2023/05/05 00:43:07;;;;;;;5.87;4.10;;;;;;;13.69;100.00;100041.78;5100806;28;20190;-74
2023/05/05 00:45:32;;;;;;;7.30;4.57;;;;;;;13.69;100.00;100043.53;5089621;28;20168;-74
2023/05/05 00:47:59;;;;;;;12.30;4.43;;;;;;;13.63;100.00;100039.63;5089519;28;20180;-71
2023/05/05 00:50:25;;;;;;;6.63;4.83;;;;;;;13.56;100.00;100039.22;5084051;28;20235;-73
2023/05/05 00:52:53;;;;;;;10.47;4.90;;;;;;;13.60;100.00;100034.66;5088731;28;20179;-74
2023/05/05 00:55:19;;;;;;;8.27;5.17;;;;;;;13.61;100.00;100031.16;5091066;28;20778;-75
2023/05/05 00:57:45;;;;;;;9.47;4.93;;;;;;;13.60;100.00;100031.25;5085575;28;20200;-74
2023/05/05 01:00:11;;;;;;;10.30;5.03;;;;;;;13.50;100.00;100024.13;5062828;28;20216;-75
2023/05/05 01:02:38;;;;;;;7.77;4.70;;;;;;;13.33;100.00;100012.31;5086863;28;20256;-73
2023/05/05 01:05:03;;;;;;;6.70;5.03;;;;;;;13.22;100.00;99994.13;5066626;28;20554;-75
2023/05/05 01:08:08;;;;;;;8.27;5.17;;;;;;;13.14;100.00;99986.09;5072373;28;20212;-73
2023/05/05 01:10:47;;;;;;;6.27;4.60;;;;;;;13.17;100.00;100001.38;5065639;28;20230;-75
2023/05/05 01:14:02;;;;;;;7.60;4.80;;;;;;;13.14;100.00;99999.00;5067812;28;20194;-75
2023/05/05 01:16:32;;;;;;;7.20;5.47;;;;;;;13.17;100.00;100009.09;5060480;28;20184;-74
2023/05/05 01:19:10;;;;;;;14.83;5.47;;;;;;;13.11;100.00;100009.53;5069482;28;20271;-75
2023/05/05 01:21:41;;;;;;;5.33;4.60;;;;;;;12.98;100.00;100006.94;5040245;28;20244;-74
2023/05/05 01:24:35;;;;;;;10.03;5.13;;;;;;;12.87;100.00;100015.38;5069562;28;20515;-73
2023/05/05 01:27:47;;;;;;;7.07;5.67;;;;;;;12.78;100.00;100013.41;5055345;28;20193;-73
2023/05/05 01:30:27;;;;;;;7.17;4.93;;;;;;;12.78;100.00;100014.22;5043321;28;20212;-74
2023/05/05 01:32:59;;;;;;;7.87;5.33;;;;;;;12.77;100.00;100028.06;5049764;28;20306;-73
2023/05/05 01:35:31;;;;;;;7.47;5.30;;;;;;;12.73;100.00;100035.16;5048889;28;20193;-73
2023/05/05 01:38:04;;;;;;;9.93;6.03;;;;;;;12.71;100.00;100037.03;5061762;28;20307;-74
2023/05/05 01:40:36;;;;;;;13.90;5.70;;;;;;;12.70;100.00;100029.38;5048551;28;20739;-74
2023/05/05 01:43:03;;;;;;;10.00;6.50;;;;;;;12.65;100.00;100026.25;5031496;28;20202;-73
2023/05/05 01:45:32;;;;;;;18.40;5.60;;;;;;;12.60;100.00;100021.41;5060121;28;20611;-74
2023/05/05 01:47:59;;;;;;;10.97;5.77;;;;;;;12.35;100.00;100028.13;5061202;28;20193;-74
2023/05/05 01:50:27;;;;;;;14.13;5.83;;;;;;;12.25;100.00;100020.16;5047193;28;20228;-73
2023/05/05 01:52:54;;;;;;;10.53;5.43;;;;;;;12.24;100.00;100022.81;5075214;28;20534;-74
2023/05/05 01:55:23;;;;;;;13.97;5.50;;;;;;;12.22;100.00;100027.25;5090042;28;20195;-73
2023/05/05 01:57:50;;;;;;;10.77;5.90;;;;;;;12.24;100.00;100022.81;5091946;28;20176;-73
2023/05/05 02:00:18;;;;;;;15.17;5.57;;;;;;;12.22;100.00;100027.25;5082187;28;20180;-72
2023/05/05 02:02:46;;;;;;;10.67;5.80;;;;;;;12.26;100.00;100023.56;5104887;28;20263;-74
2023/05/05 02:05:13;;;;;;;9.67;5.10;;;;;;;12.33;100.00;100024.81;5090026;28;20180;-74
2023/05/05 02:07:38;;;;;;;10.30;5.33;;;;;;;12.39;100.00;100037.34;5089793;28;20168;-74
2023/05/05 02:10:05;;;;;;;10.87;5.43;;;;;;;12.43;100.00;100040.56;5080137;28;20199;-74
2023/05/05 02:12:32;;;;;;;10.33;5.80;;;;;;;12.41;100.00;100040.63;5106368;28;20275;-74
2023/05/05 02:15:00;;;;;;;8.47;6.17;;;;;;;12.43;100.00;100046.53;5088606;28;20179;-72
2023/05/05 02:17:26;;;;;;;14.33;5.63;;;;;;;12.43;100.00;100038.78;5089926;28;20310;-73
2023/05/05 02:19:53;;;;;;;11.53;5.77;;;;;;;12.38;100.00;100035.69;5088156;28;20212;-74
2023/05/05 02:22:19;;;;;;;6.87;5.13;;;;;;;12.41;100.00;100034.66;5079780;28;20321;-75
2023/05/05 02:24:44;;;;;;;9.47;5.30;;;;;;;12.36;100.00;100029.78;5088359;28;20255;-72
2023/05/05 02:27:10;;;;;;;15.17;5.30;;;;;;;12.30;100.00;100040.47;5084592;28;20187;-74
2023/05/05 02:29:57;;;;;;;10.50;5.67;;;;;;;12.16;100.00;100036.19;5089436;28;20173;-73
2023/05/05 02:32:38;;;;;;;9.33;5.67;;;;;;;12.23;100.00;100049.50;5096056;28;20726;-74
2023/05/05 02:35:29;;;;;;;8.27;5.40;;;;;;;12.22;100.00;100045.31;5065256;28;20187;-74
2023/05/05 02:37:58;;;;;;;11.33;5.93;;;;;;;12.23;100.00;100041.78;5088917;28;20339;-74
2023/05/05 02:40:25;;;;;;;11.33;5.63;;;;;;;12.25;100.00;100045.09;5081600;28;20342;-74
2023/05/05 02:42:53;;;;;;;6.93;5.13;;;;;;;12.29;100.00;100046.56;5102398;28;20180;-74
2023/05/05 02:45:21;;;;;;;8.17;6.33;;;;;;;12.35;100.00;100050.50;5090498;28;20176;-74
2023/05/05 02:47:46;;;;;;;10.47;5.73;;;;;;;12.42;100.00;100062.09;5089546;28;20543;-74
2023/05/05 02:50:12;;;;;;;9.70;5.37;;;;;;;12.42;100.00;100057.75;5080913;28;20179;-73
2023/05/05 02:52:37;;;;;;;12.13;5.53;;;;;;;12.42;100.00;100055.19;5103666;28;20180;-73
2023/05/05 02:55:04;;;;;;;7.00;5.20;;;;;;;12.49;100.00;100059.97;5089933;28;20187;-73
2023/05/05 02:58:17;;;;;;;13.27;5.67;;;;;;;12.41;100.00;100056.09;5086282;28;20195;-72
2023/05/05 03:01:10;;;;;;;9.40;5.93;;;;;;;12.26;100.00;100057.91;5058976;28;20567;-74
2023/05/05 03:03:50;;;;;;;12.10;6.07;;;;;;;12.29;100.00;100056.06;5064635;28;20272;-74
2023/05/05 03:06:21;;;;;;;7.47;5.97;;;;;;;12.31;100.00;100057.63;5080948;28;20706;-76
2023/05/05 03:09:03;;;;;;;13.20;6.20;;;;;;;12.19;100.00;100056.66;5094362;28;20195;-75
2023/05/05 03:11:42;;;;;;;8.20;5.27;;;;;;;11.99;100.00;100067.34;5080907;28;20273;-72
2023/05/05 03:14:10;;;;;;;6.53;5.07;;;;;;;12.00;100.00;100063.84;5077199;28;20640;-73
2023/05/05 03:16:37;;;;;;;9.60;5.90;;;;;;;12.03;100.00;100071.38;5076079;28;20228;-73
2023/05/05 03:19:04;;;;;;;7.27;5.30;;;;;;;12.04;100.00;100075.63;5078005;28;20228;-73
2023/05/05 03:21:31;;;;;;;9.83;6.67;;;;;;;12.10;100.00;100063.16;5066053;28;20331;-72
2023/05/05 03:23:57;;;;;;;7.43;5.30;;;;;;;11.97;100.00;100061.44;5078849;28;20191;-73
2023/05/05 03:26:23;;;;;;;7.77;5.77;;;;;;;11.89;100.00;100065.28;5074454;28;20177;-74
2023/05/05 03:28:48;;;;;;;8.27;6.37;;;;;;;11.94;100.00;100057.28;5074480;28;20173;-74
2023/05/05 03:31:14;;;;;;;9.27;5.83;;;;;;;11.74;100.00;100059.31;5048694;28;20761;-74
2023/05/05 03:33:39;;;;;;;8.90;6.27;;;;;;;11.70;100.00;100068.16;5070137;28;20184;-73
2023/05/05 03:36:05;;;;;;;7.83;5.50;;;;;;;11.61;100.00;100059.22;5093422;28;20185;-73
2023/05/05 03:38:30;;;;;;;7.37;6.67;;;;;;;11.59;100.00;100061.06;5093761;28;20549;-73
2023/05/05 03:40:55;;;;;;;7.97;6.53;;;;;;;11.59;100.00;100066.19;5090626;28;20231;-74
2023/05/05 03:43:21;;;;;;;8.67;7.23;;;;;;;11.49;100.00;100057.38;5092535;28;20594;-72
2023/05/05 03:45:46;;;;;;;7.60;7.00;;;;;;;11.46;100.00;100062.69;5092190;28;20176;-72
2023/05/05 03:48:11;;;;;;;8.23;6.87;;;;;;;11.53;100.00;100060.59;5091886;28;20176;-73
2023/05/05 03:50:36;;;;;;;8.50;7.50;;;;;;;11.51;100.00;100059.84;5088107;28;20223;-73
2023/05/05 03:53:02;;;;;;;8.20;7.13;;;;;;;11.46;100.00;100063.53;5104468;28;20195;-72
2023/05/05 03:55:27;;;;;;;15.33;12.80;;;;;;;11.37;100.00;100066.63;5093384;28;20248;-72
2023/05/05 03:57:52;;;;;;;10.23;9.13;;;;;;;11.30;100.00;100068.75;5086013;28;20282;-72
2023/05/05 04:00:18;;;;;;;10.20;9.17;;;;;;;11.35;100.00;100068.50;5065360;28;20221;-73
2023/05/05 04:02:43;;;;;;;9.87;8.00;;;;;;;11.35;100.00;100068.50;5087097;28;20651;-73
2023/05/05 04:05:08;;;;;;;8.20;7.40;;;;;;;11.35;100.00;100081.38;5073337;28;20173;-72
2023/05/05 04:07:34;;;;;;;9.13;7.97;;;;;;;11.34;100.00;100081.44;5073441;28;20208;-72
2023/05/05 04:09:59;;;;;;;10.77;7.80;;;;;;;11.33;100.00;100083.19;5073308;28;20200;-73
2023/05/05 04:12:24;;;;;;;9.07;7.67;;;;;;;11.37;100.00;100078.69;5079016;28;20294;-72
2023/05/05 04:14:50;;;;;;;9.93;7.40;;;;;;;11.51;100.00;100075.31;5073488;28;20180;-72
2023/05/05 04:17:15;;;;;;;9.00;8.00;;;;;;;11.57;100.00;100067.22;5072891;28;20188;-73
2023/05/05 04:19:40;;;;;;;8.87;7.40;;;;;;;11.68;100.00;100072.56;5073674;28;20272;-74
2023/05/05 04:22:05;;;;;;;10.40;7.40;;;;;;;11.81;100.00;100069.25;5064511;28;20232;-73
2023/05/05 04:24:31;;;;;;;8.97;7.57;;;;;;;11.97;100.00;100076.91;5076989;28;20182;-73
2023/05/05 04:26:56;;;;;;;15.17;7.20;;;;;;;12.08;100.00;100079.66;5083705;28;20230;-74
2023/05/05 04:29:21;;;;;;;11.07;7.50;;;;;;;12.09;100.00;100079.59;5092963;28;20237;-73
2023/05/05 04:31:46;;;;;;;9.13;7.20;;;;;;;12.18;100.00;100083.34;5087452;28;20654;-72
2023/05/05 04:34:12;;;;;;;9.33;6.90;;;;;;;12.32;100.00;100082.50;5069260;28;20189;-74
2023/05/05 04:36:37;;;;;;;12.93;7.20;;;;;;;12.48;100.00;100081.50;5072620;28;20181;-72
2023/05/05 04:39:02;;;;;;;10.80;7.33;;;;;;;12.52;100.00;100088.97;5071071;28;20201;-73
2023/05/05 04:41:27;;;;;;;9.00;6.97;;;;;;;12.77;100.00;100078.84;5061029;28;20290;-73
2023/05/05 04:43:54;;;;;;;8.77;6.60;;;;;;;12.90;100.00;100082.31;5072628;28;20231;-72
2023/05/05 04:46:19;;;;;;;9.03;7.33;;;;;;;13.02;100.00;100078.94;5072755;28;20578;-74
2023/05/05 04:48:45;;;;;;;9.53;7.20;;;;;;;13.05;100.00;100080.50;5090439;28;20180;-73
2023/05/05 04:51:11;;;;;;;10.20;6.70;;;;;;;13.05;100.00;100088.25;5075171;28;20674;-73
2023/05/05 04:53:36;;;;;;;9.47;7.13;;;;;;;12.99;100.00;100084.28;5094785;28;20535;-73
2023/05/05 04:56:02;;;;;;;8.63;6.63;;;;;;;13.12;100.00;100091.22;5092143;28;20188;-74
2023/05/05 04:58:27;;;;;;;7.83;6.83;;;;;;;13.14;100.00;100089.38;5079454;28;20197;-74
2023/05/05 05:00:53;;;;;;;7.97;6.50;;;;;;;13.15;100.00;100091.88;5063986;28;20215;-74
2023/05/05 05:03:18;;;;;;;8.33;7.20;;;;;;;13.08;100.00;100088.88;5058444;28;20284;-74
2023/05/05 05:05:43;;;;;;;7.73;6.90;;;;;;;13.29;100.00;100090.94;5071846;28;20188;-74
2023/05/05 05:08:09;;;;;;;7.83;6.60;;;;;;;13.52;100.00;100096.38;5051297;28;20215;-74
2023/05/05 05:10:34;;;;;;;9.87;7.00;;;;;;;13.83;100.00;100094.28;5077351;28;20232;-74
2023/05/05 05:12:59;;;;;;;9.33;6.37;;;;;;;13.93;100.00;100097.91;5063674;28;20201;-73
2023/05/05 05:15:25;;;;;;;10.90;7.13;;;;;;;14.11;100.00;100088.03;5072051;28;20628;-73
2023/05/05 05:17:50;;;;;;;7.00;6.10;;;;;;;14.19;100.00;100106.47;5072784;28;20189;-75
2023/05/05 05:20:16;;;;;;;9.80;7.47;;;;;;;14.43;100.00;100103.06;5062459;28;20255;-74
2023/05/05 05:22:41;;;;;;;10.27;6.83;;;;;;;14.74;100.00;100106.09;5059517;28;20308;-74
2023/05/05 05:25:07;;;;;;;11.60;7.20;;;;;;;15.00;100.00;100103.38;5076135;28;20175;-72
2023/05/05 05:27:32;;;;;;;12.53;7.57;;;;;;;14.99;100.00;100105.13;5081575;28;20218;-70
2023/05/05 05:29:57;;;;;;;9.30;6.83;;;;;;;15.08;100.00;100103.66;5084746;28;20255;-69
2023/05/05 05:32:22;;;;;;;12.07;7.27;;;;;;;15.18;100.00;100098.59;5093201;28;20648;-68
2023/05/05 05:34:48;;;;;;;9.33;7.30;;;;;;;15.23;100.00;100106.03;5078105;28;20181;-74
2023/05/05 05:37:13;;;;;;;12.83;7.20;;;;;;;14.83;100.00;100110.63;5062882;28;20177;-74
2023/05/05 05:39:38;;;;;;;11.83;7.47;;;;;;;14.86;100.00;100109.59;5073538;28;20205;-75
2023/05/05 05:42:04;;;;;;;10.00;7.30;;;;;;;14.82;100.00;100114.16;5069206;28;20715;-73
2023/05/05 05:44:29;;;;;;;9.20;7.27;;;;;;;14.94;100.00;100114.19;5084896;28;20184;-73
2023/05/05 05:46:55;;;;;;;9.07;7.30;;;;;;;14.99;100.00;100120.69;5084951;28;20274;-71
2023/05/05 05:49:20;;;;;;;7.43;6.73;;;;;;;15.00;100.00;100124.09;5085492;28;20275;-70
2023/05/05 05:51:45;;;;;;;9.10;7.47;;;;;;;14.88;100.00;100125.81;5079459;28;20216;-71
2023/05/05 05:54:10;;;;;;;7.17;6.47;;;;;;;14.90;100.00;100130.91;5077862;28;20179;-71
2023/05/05 05:56:36;;;;;;;8.67;7.07;;;;;;;15.00;100.00;100127.50;5086871;28;20603;-71
2023/05/05 05:59:03;;;;;;;11.27;7.20;;;;;;;15.15;100.00;100125.56;5078772;28;20199;-71
2023/05/05 06:01:28;;;;;;;12.00;6.67;;;;;;;15.35;100.00;100123.28;5060169;28;20293;-73
2023/05/05 06:03:54;;;;;;;10.57;6.83;;;;;;;15.47;100.00;100126.72;5079880;28;20184;-70
2023/05/05 06:06:19;;;;;;;8.50;6.47;;;;;;;15.67;100.00;100127.00;5090885;28;20214;-73
2023/05/05 06:08:44;;;;;;;7.80;6.90;;;;;;;15.87;100.00;100126.31;5090711;28;20192;-71
2023/05/05 06:11:10;;;;;;;7.07;6.40;;;;;;;16.12;100.00;100127.03;5076333;28;20236;-75
2023/05/05 06:13:35;;;;;;;7.47;6.53;;;;;;;16.29;100.00;100134.31;5073314;28;20187;-76
2023/05/05 06:16:00;;;;;;;7.27;6.50;;;;;;;16.61;100.00;100133.56;5085461;28;20632;-69
2023/05/05 06:18:26;;;;;;;10.07;6.67;;;;;;;16.91;100.00;100123.44;5084038;28;20229;-70
2023/05/05 06:20:51;;;;;;;7.97;6.37;;;;;;;17.30;100.00;100122.94;5077171;28;20227;-69
2023/05/05 06:23:16;;;;;;;7.53;6.83;;;;;;;17.36;100.00;100125.84;5094563;28;20201;-69
2023/05/05 06:25:42;;;;;;;7.83;6.13;;;;;;;17.44;100.00;100125.22;5079270;28;20287;-69
2023/05/05 06:28:07;;;;;;;8.13;6.37;;;;;;;17.73;100.00;100132.34;5077280;28;20565;-69
2023/05/05 06:30:34;;;;;;;9.77;6.27;;;;;;;18.04;100.00;100127.19;5075234;28;20361;-70
2023/05/05 06:32:59;;;;;;;8.53;6.87;;;;;;;18.05;100.00;100127.03;5099091;28;20179;-69
2023/05/05 06:35:24;;;;;;;8.03;6.10;;;;;;;18.77;100.00;100128.72;5090543;28;20187;-70
2023/05/05 06:37:49;;;;;;;8.83;6.80;;;;;;;19.42;99.90;100133.38;5084860;28;20183;-70
2023/05/05 06:40:15;;;;;;;7.27;6.67;;;;;;;20.76;95.43;100133.91;5069884;28;20218;-70
2023/05/05 06:42:40;;;;;;;7.43;6.67;;;;;;;21.40;91.86;100132.91;5074054;28;20187;-70
2023/05/05 06:45:06;;;;;;;9.20;6.00;;;;;;;22.21;86.93;100133.50;5083685;28;20241;-69
2023/05/05 06:47:31;;;;;;;8.40;5.47;;;;;;;23.19;79.51;100145.16;5089068;28;20298;-70
2023/05/05 06:49:57;;;;;;;6.47;5.67;;;;;;;22.95;80.13;100149.41;5090744;28;20180;-70
2023/05/05 06:52:22;;;;;;;6.93;4.80;;;;;;;23.90;75.72;100147.94;5067349;28;20228;-70
2023/05/05 06:54:47;;;;;;;5.75;5.22;;;;;;;25.09;64.64;100137.28;5080610;28;20200;-71
2023/05/05 06:57:12;;;;;;;6.60;4.40;;;;;;;25.48;62.48;100143.34;5094907;28;20172;-72
2023/05/05 06:59:38;;;;;;;4.63;4.22;;;;;;;25.88;58.69;100146.53;5093766;28;20214;-72
2023/05/05 07:02:03;;;;;;;5.55;3.90;;;;;;;26.14;56.76;100147.06;5064899;28;20710;-71
2023/05/05 07:04:28;;;;;;;5.53;4.15;;;;;;;25.23;64.86;100148.00;5064105;28;20184;-70
2023/05/05 07:06:54;;;;;;;6.90;4.25;;;;;;;23.92;76.12;100156.50;5076896;28;20243;-69
2023/05/05 07:09:19;;;;;;;6.93;4.75;;;;;;;23.89;76.87;100151.59;5074777;28;20204;-70
2023/05/05 07:11:45;;;;;;;5.10;4.63;;;;;;;24.24;76.83;100146.84;5088787;28;20572;-70
2023/05/05 07:14:10;;;;;;;8.20;5.88;;;;;;;24.92;71.27;100147.13;5066055;28;20209;-70
2023/05/05 07:16:36;;;;;;;10.95;5.57;;;;;;;25.83;62.42;100148.88;5072006;28;20719;-69
2023/05/05 07:19:04;;;;;;;7.25;4.68;;;;;;;26.58;55.86;100146.94;5083932;28;20215;-70
2023/05/05 07:21:30;;;;;;;5.90;5.25;;;;;;;27.72;50.06;100154.16;5091448;28;20686;-70
2023/05/05 07:23:55;;;;;;;5.05;3.90;;;;;;;28.83;47.42;100153.09;5079107;28;20184;-71
2023/05/05 07:26:21;;;;;;;8.20;4.13;;;;;;;29.95;43.10;100158.44;5089841;28;20180;-70
2023/05/05 07:28:46;;;;;;;4.22;3.78;;;;;;;31.61;38.33;100164.63;5087622;28;20176;-70
2023/05/05 07:31:11;;;;;;;7.03;3.50;;;;;;;31.77;38.05;100157.94;5058734;28;20574;-70
2023/05/05 07:33:36;;;;;;;3.65;3.30;;;;;;;32.36;37.02;100162.72;5072549;28;20185;-71
2023/05/05 07:36:02;;;;;;;3.50;2.97;;;;;;;32.06;36.19;100165.38;5078057;28;20702;-56
2023/05/05 07:38:27;;;;;;;4.25;2.22;;;;;;;31.07;38.15;100161.69;5077360;28;20204;-56
2023/05/05 07:40:52;;;;;;;3.60;2.70;;;;;;;30.90;38.19;100167.53;5073231;28;20262;-56
2023/05/05 07:43:18;;;;;;;8.25;3.78;;;;;;;30.95;39.57;100166.88;5082690;28;20196;-56
2023/05/05 07:45:43;;;;;;;4.47;2.65;;;;;;;30.76;40.29;100163.31;5076678;28;20214;-56
2023/05/05 07:48:08;;;;;;;4.03;3.30;;;;;;;30.95;40.55;100158.91;5077068;28;20219;-56
2023/05/05 07:50:33;;;;;;;7.85;2.70;;;;;;;31.74;38.40;100158.38;5073847;28;20231;-56
2023/05/05 07:52:58;;;;;;;4.25;2.78;;;;;;;32.21;38.11;100167.66;5077753;28;20187;-56
2023/05/05 07:55:24;;;;;;;3.28;2.95;;;;;;;31.00;38.68;100163.56;5076938;28;21026;-56
2023/05/05 07:57:49;;;;;;;5.63;2.58;;;;;;;29.02;43.33;100161.25;5093738;28;20188;-56
2023/05/05 08:00:18;;;;;;;4.40;2.80;;;;;;;29.69;44.45;100158.53;5070439;28;20603;-57
2023/05/05 08:02:43;;;;;;;7.28;2.88;;;;;;;30.12;41.06;100155.34;5087290;28;20181;-57
2023/05/05 08:05:09;;;;;;;4.40;2.85;;;;;;;31.21;39.78;100160.53;5064552;28;20268;-57
2023/05/05 08:07:39;;;;;;;5.45;2.85;;;;;;;31.57;38.17;100162.63;5078834;28;20215;-57
2023/05/05 08:10:06;;;;;;;5.00;2.83;;;;;;;32.05;36.76;100161.09;5069028;28;20208;-55
2023/05/05 08:12:31;;;;;;;5.70;2.65;;;;;;;33.27;34.71;100154.53;5090070;28;20235;-56
2023/05/05 08:14:56;;;;;;;3.33;2.95;;;;;;;34.27;32.86;100153.59;5074437;28;20177;-61
2023/05/05 08:17:24;;;;;;;2.83;2.55;;;;;;;34.15;32.65;100155.50;5078871;28;20184;-57
2023/05/05 08:19:53;;;;;;;3.00;2.28;;;;;;;34.51;33.15;100162.31;5069626;28;20205;-57
2023/05/05 08:22:20;;;;;;;4.90;2.35;;;;;;;34.54;31.72;100164.50;5069280;28;20284;-57
2023/05/05 08:24:45;;;;;;;2.85;2.38;;;;;;;35.78;30.87;100168.97;5063710;28;20181;-58
2023/05/05 08:27:12;;;;;;;2.65;2.38;;;;;;;34.08;31.98;100167.13;5071288;28;20180;-57
2023/05/05 08:29:38;;;;;;;2.88;2.55;;;;;;;32.92;34.37;100167.84;5070113;28;20173;-57
2023/05/05 08:32:03;;;;;;;2.92;2.60;;;;;;;32.60;33.78;100162.78;5088043;28;20693;-58
2023/05/05 08:34:28;;;;;;;5.78;2.50;;;;;;;33.48;33.76;100160.34;5078750;28;20188;-57
2023/05/05 08:36:53;;;;;;;2.25;2.05;;;;;;;33.77;31.91;100163.06;5084899;28;20518;-56
2023/05/05 08:39:19;;;;;;;5.15;2.50;;;;;;;33.47;32.89;100158.72;5076813;28;20199;-57
2023/05/05 08:41:44;;;;;;;6.22;2.30;;;;;;;34.27;32.27;100156.25;5073819;28;20220;-58
2023/05/05 08:44:09;;;;;;;8.88;2.13;;;;;;;35.48;30.85;100169.41;5063985;28;20223;-57
2023/05/05 08:46:35;;;;;;;2.85;2.30;;;;;;;35.93;30.64;100168.34;5081465;28;20187;-58
2023/05/05 08:49:02;;;;;;;4.72;1.88;;;;;;;36.56;28.42;100170.59;5091749;28;20545;-59
2023/05/05 08:51:31;;;;;;;6.25;1.83;;;;;;;36.39;27.14;100175.25;5082121;28;20249;-58
2023/05/05 08:54:01;;;;;;;4.25;2.28;;;;;;;34.41;31.21;100156.78;5087623;28;20272;-58
2023/05/05 08:56:31;;;;;;;5.10;2.30;;;;;;;33.31;32.61;100157.56;5090355;28;20547;-58
2023/05/05 08:58:58;;;;;;;3.60;2.38;;;;;;;33.87;33.08;100155.28;5092518;28;20188;-58
2023/05/05 09:01:24;;;;;;;3.85;2.17;;;;;;;33.38;32.68;100157.44;5093016;28;20235;-57
2023/05/05 09:03:50;;;;;;;3.90;2.10;;;;;;;32.63;33.84;100152.50;5091044;28;20577;-57
2023/05/05 09:06:16;;;;;;;2.60;1.98;;;;;;;32.59;34.74;100150.53;5081543;28;20177;-57
2023/05/05 09:08:41;;;;;;;2.22;1.70;;;;;;;32.59;34.66;100142.53;5072256;28;20239;-57
2023/05/05 09:11:06;;;;;;;3.33;1.45;;;;;;;33.09;31.44;100146.66;5064940;28;20235;-57
2023/05/05 09:13:32;;;;;;;3.28;1.65;;;;;;;35.20;28.59;100147.06;5079413;28;20184;-57
2023/05/05 09:15:58;;;;;;;2.55;1.30;;;;;;;36.52;26.30;100161.44;5072775;28;20191;-57
2023/05/05 09:18:24;;;;;;;2.75;1.60;;;;;;;37.76;25.79;100148.75;5073894;28;20236;-57
2023/05/05 09:20:50;;;;;;;2.10;1.73;;;;;;;37.25;26.11;100157.38;5065434;28;20232;-57
2023/05/05 09:23:17;;;;;;;3.80;1.88;;;;;;;35.55;26.94;100162.00;5079349;28;20236;-58
2023/05/05 09:25:45;;;;;;;2.60;1.75;;;;;;;35.21;27.18;100143.34;5063889;28;20331;-58
2023/05/05 09:28:12;;;;;;;2.70;1.52;;;;;;;36.99;26.34;100151.91;5079320;28;20211;-58
2023/05/05 09:30:40;;;;;;;4.15;1.88;;;;;;;37.40;25.83;100149.44;5072680;28;20231;-58
2023/05/05 09:33:05;;;;;;;5.03;1.67;;;;;;;38.72;23.93;100149.16;5093092;28;20230;-59
2023/05/05 09:35:48;;;;;;;4.57;1.70;;;;;;;37.72;24.35;100150.34;5086310;28;20215;-58
2023/05/05 09:38:13;;;;;;;4.13;1.33;;;;;;;38.03;24.48;100145.09;5069957;28;20172;-57
2023/05/05 09:40:52;;;;;;;2.05;1.05;;;;;;;35.04;25.79;100141.53;5078989;28;20220;-57
2023/05/05 09:43:20;;;;;;;2.45;1.10;;;;;;;35.94;24.89;100148.56;5096594;28;20180;-57
2023/05/05 09:45:47;;;;;;;1.15;0.85;;;;;;;36.45;24.75;100148.25;5082586;28;20647;-58
2023/05/05 09:48:26;;;;;;;4.63;0.98;;;;;;;36.45;23.43;100147.47;5080619;28;20229;-57
2023/05/05 09:50:52;;;;;;;3.55;1.20;;;;;;;36.29;24.83;100146.47;5077131;28;20223;-57
2023/05/05 09:53:18;;;;;;;6.35;1.38;;;;;;;36.83;25.29;100133.00;5080861;28;20192;-57
2023/05/05 09:55:57;;;;;;;2.22;0.90;;;;;;;35.83;24.68;100141.47;5077893;28;20189;-57
2023/05/05 09:58:25;;;;;;;2.85;1.45;;;;;;;37.19;23.92;100137.78;5070573;28;20192;-57
2023/05/05 10:00:51;;;;;;;2.40;1.23;;;;;;;37.51;23.64;100130.69;5065555;28;20228;-58
2023/05/05 10:03:17;;;;;;;1.95;1.10;;;;;;;37.35;24.06;100127.16;5081238;28;20188;-57
2023/05/05 10:05:51;;;;;;;2.88;1.10;;;;;;;36.34;23.75;100133.94;5074864;28;20185;-57
2023/05/05 10:08:23;;;;;;;1.42;0.88;;;;;;;36.25;24.94;100130.13;5073900;28;20271;-57
2023/05/05 10:11:00;;;;;;;1.48;0.90;;;;;;;35.79;24.15;100125.09;5063309;28;20390;-57
2023/05/05 10:13:26;;;;;;;3.63;0.82;;;;;;;34.81;24.91;100117.66;5069291;28;20176;-56
2023/05/05 10:15:54;;;;;;;1.40;1.00;;;;;;;36.56;23.56;100121.56;5067654;28;20169;-58
2023/05/05 10:18:22;;;;;;;1.90;1.00;;;;;;;36.12;23.60;100115.28;5084456;28;20221;-57
2023/05/05 10:21:07;;;;;;;2.22;0.90;;;;;;;34.05;23.25;100118.78;5063421;28;20299;-59
2023/05/05 10:23:47;;;;;;;2.05;1.00;;;;;;;35.11;23.21;100113.81;5084178;28;20703;-59
2023/05/05 10:26:13;;;;;;;1.88;1.15;;;;;;;36.10;23.05;100116.59;5076876;28;20264;-60
2023/05/05 10:28:50;;;;;;;1.08;0.60;;;;;;;34.15;23.52;100108.31;5068640;28;20184;-57
2023/05/05 10:31:19;;;;;;;2.47;0.70;;;;;;;34.87;24.43;100109.50;5073410;28;20310;-60
2023/05/05 10:34:29;;;;;;;2.80;0.90;;;;;;;35.13;23.02;100112.53;5074042;28;20181;-58
2023/05/05 10:36:56;;;;;;;1.75;0.80;;;;;;;36.39;20.74;100116.34;5051604;28;20193;-58
2023/05/05 10:39:22;;;;;;;1.98;0.70;;;;;;;34.63;21.07;100116.03;5057037;28;20226;-58
2023/05/05 10:41:50;;;;;;;1.50;0.75;;;;;;;31.12;24.66;100105.25;5093822;28;20219;-57
2023/05/05 10:44:16;;;;;;;1.85;0.90;;;;;;;29.91;27.90;100093.63;5087969;28;20215;-57
2023/05/05 10:46:43;;;;;;;1.73;0.90;;;;;;;29.73;28.78;100102.25;5080897;28;20631;-58
2023/05/05 10:49:20;;;;;;;1.60;0.80;;;;;;;29.36;29.07;100096.66;5086769;28;20180;-58
2023/05/05 10:52:11;;;;;;;1.10;0.90;;;;;;;28.80;30.72;100089.97;5067478;28;20699;-60
2023/05/05 10:55:11;;;;;;;1.58;1.05;;;;;;;28.32;31.03;100088.31;5073315;28;20234;-58
2023/05/05 10:57:40;;;;;;;2.42;0.80;;;;;;;27.65;31.29;100078.31;5054295;28;20558;-58
2023/05/05 11:00:07;;;;;;;3.47;0.93;;;;;;;27.76;32.39;100076.94;5014296;28;20215;-59
2023/05/05 11:02:34;;;;;;;2.67;1.17;;;;;;;27.84;31.77;100071.44;5046292;28;20647;-58
2023/05/05 11:05:08;;;;;;;1.90;1.17;;;;;;;27.43;32.68;100080.22;5050696;28;20267;-57
2023/05/05 11:07:35;;;;;;;1.17;0.90;;;;;;;27.43;34.26;100074.16;5035497;28;20177;-58
2023/05/05 11:10:05;;;;;;;2.42;1.10;;;;;;;27.20;34.21;100069.91;5052567;28;20209;-58
2023/05/05 11:12:32;;;;;;;4.82;1.13;;;;;;;26.86;35.36;100072.31;5024634;28;20241;-59
2023/05/05 11:15:24;;;;;;;1.95;0.88;;;;;;;26.51;35.77;100066.13;5036450;28;20684;-59
2023/05/05 11:17:50;;;;;;;6.00;1.35;;;;;;;26.54;36.73;100058.63;5024693;28;20221;-56
2023/05/05 11:20:16;;;;;;;1.63;0.80;;;;;;;26.36;37.30;100061.72;5051152;28;20689;-57
2023/05/05 11:23:10;;;;;;;1.80;1.08;;;;;;;26.02;33.39;100057.88;5040205;28;20308;-58
2023/05/05 11:28:07;;;;;;;4.47;0.90;;;;;;;25.93;34.80;100051.91;5052407;28;20743;-58